Time;durP1;ratioP1;P1;durP2;ratioP2;P2;SDS_P1;SDS_P2;PMS_P1;PMS_P2;Temp;Humidity;BMP_temperature;BMP_pressure;BME280_temperature;BME280_humidity;BME280_pressure;Samples;Min_cycle;Max_cycle;Signal;HPM_P1;HPM_P2
2023/08/21 00:00:09;;;;;;;3.97;0.90;;;21.80;99.90;;;;;;5121382;27;20179;-70
2023/08/21 00:02:37;;;;;;;1.67;0.90;;;21.70;99.90;;;;;;5118996;27;20210;-69
2023/08/21 00:05:06;;;;;;;2.37;1.00;;;22.10;99.90;;;;;;5124914;27;20222;-71
2023/08/21 00:07:33;;;;;;;2.20;0.90;;;22.30;99.90;;;;;;5133086;27;20196;-71
2023/08/21 00:10:01;;;;;;;2.57;0.90;;;22.20;99.90;;;;;;5115326;27;20642;-70
2023/08/21 00:12:29;;;;;;;1.80;0.87;;;22.70;99.40;;;;;;5121231;27;20267;-72
2023/08/21 00:14:57;;;;;;;1.80;0.80;;;22.70;98.30;;;;;;5112786;28;20642;-71
2023/08/21 00:17:25;;;;;;;0.97;0.70;;;22.90;98.10;;;;;;5113032;28;20747;-72
2023/08/21 00:19:53;;;;;;;3.77;0.90;;;23.00;96.90;;;;;;5112754;27;20226;-69
2023/08/21 00:22:20;;;;;;;1.43;0.80;;;23.90;96.90;;;;;;5121140;27;20632;-71
2023/08/21 00:24:48;;;;;;;4.80;0.97;;;24.60;95.10;;;;;;5103440;27;20223;-70
2023/08/21 00:27:16;;;;;;;3.70;1.10;;;24.60;93.20;;;;;;5118727;27;20170;-71
2023/08/21 00:29:44;;;;;;;1.57;0.90;;;24.40;90.00;;;;;;5121969;27;20170;-70
2023/08/21 00:32:12;;;;;;;2.33;0.97;;;24.20;88.70;;;;;;5121555;27;20192;-70
2023/08/21 00:34:40;;;;;;;3.47;1.23;;;24.10;87.50;;;;;;5123828;27;20178;-69
2023/08/21 00:37:07;;;;;;;2.20;1.07;;;23.70;88.40;;;;;;5121419;27;20714;-71
2023/08/21 00:39:35;;;;;;;0.80;0.80;;;23.90;86.50;;;;;;5118585;27;20175;-69
2023/08/21 00:42:03;;;;;;;2.73;1.03;;;24.10;84.60;;;;;;5121865;27;20593;-70
2023/08/21 00:44:31;;;;;;;2.70;1.10;;;23.80;82.00;;;;;;5122023;27;20661;-71
2023/08/21 00:46:58;;;;;;;4.40;1.50;;;24.10;80.70;;;;;;5120468;27;20544;-71
2023/08/21 00:49:27;;;;;;;2.73;1.33;;;24.40;84.70;;;;;;5101723;28;20182;-71
2023/08/21 00:51:55;;;;;;;1.80;1.10;;;24.60;78.00;;;;;;5108790;28;20206;-70
2023/08/21 00:54:23;;;;;;;6.30;1.20;;;25.20;76.70;;;;;;5111887;28;20190;-70
2023/08/21 00:56:52;;;;;;;3.70;0.90;;;25.10;85.20;;;;;;5093070;28;20190;-70
2023/08/21 00:59:21;;;;;;;1.73;1.07;;;24.00;73.70;;;;;;5092802;28;20186;-70
2023/08/21 01:01:48;;;;;;;2.50;1.13;;;24.40;72.20;;;;;;5111509;28;20644;-71
2023/08/21 01:04:16;;;;;;;3.20;0.80;;;24.20;71.80;;;;;;5109101;28;20189;-70
2023/08/21 01:06:44;;;;;;;2.30;1.00;;;24.60;73.00;;;;;;5111172;28;20242;-71
2023/08/21 01:09:55;;;;;;;2.20;0.90;;;25.00;70.70;;;;;;5111285;28;20265;-72
2023/08/21 01:12:45;;;;;;;4.27;1.37;;;25.00;67.10;;;;;;5069575;28;20186;-72
2023/08/21 01:15:14;;;;;;;3.27;1.10;;;24.50;64.20;;;;;;5112174;28;20189;-71
2023/08/21 01:17:42;;;;;;;7.37;1.43;;;23.70;68.80;;;;;;5111814;28;20198;-71
2023/08/21 01:20:11;;;;;;;2.10;0.80;;;24.70;62.20;;;;;;5111438;28;20667;-70
2023/08/21 01:22:45;;;;;;;2.20;0.93;;;25.10;62.30;;;;;;5111554;28;20182;-71
2023/08/21 01:25:15;;;;;;;3.90;1.20;;;24.60;63.50;;;;;;5111641;28;20218;-71
2023/08/21 01:27:48;;;;;;;5.73;1.47;;;24.30;60.90;;;;;;5110702;28;20204;-71
2023/08/21 01:30:16;;;;;;;3.30;1.30;;;24.70;61.30;;;;;;5109131;28;20628;-70
2023/08/21 01:33:00;;;;;;;3.17;1.63;;;25.20;63.50;;;;;;5110527;28;20178;-71
2023/08/21 01:35:30;;;;;;;3.00;1.63;;;25.10;57.80;;;;;;5110041;28;20184;-70
2023/08/21 01:37:58;;;;;;;5.90;1.60;;;25.50;59.20;;;;;;5109155;28;20294;-70
2023/08/21 01:40:25;;;;;;;7.03;1.60;;;25.80;55.40;;;;;;5111048;28;20190;-71
2023/08/21 01:42:56;;;;;;;8.80;1.77;;;25.30;58.20;;;;;;5110321;28;20804;-71
2023/08/21 01:45:24;;;;;;;5.67;1.50;;;25.90;61.30;;;;;;5110926;28;20210;-70
2023/08/21 01:47:51;;;;;;;3.43;1.50;;;25.80;56.80;;;;;;5111304;28;20235;-69
2023/08/21 01:50:19;;;;;;;4.47;1.17;;;25.40;54.90;;;;;;5110688;28;20591;-71
2023/08/21 01:52:46;;;;;;;6.20;1.40;;;25.90;51.50;;;;;;5111411;28;20194;-71
2023/08/21 01:55:14;;;;;;;9.80;1.43;;;25.80;50.50;;;;;;5111702;28;20167;-71
2023/08/21 01:57:42;;;;;;;1.93;1.03;;;25.60;53.20;;;;;;5091255;28;20170;-70
2023/08/21 02:00:10;;;;;;;5.07;1.13;;;26.10;51.90;;;;;;5111106;28;20190;-71
2023/08/21 02:02:37;;;;;;;1.60;0.90;;;26.50;52.10;;;;;;5092850;28;20185;-71
2023/08/21 02:05:05;;;;;;;2.73;0.70;;;26.00;51.20;;;;;;5110942;28;20260;-71
2023/08/21 02:07:32;;;;;;;2.97;0.97;;;26.10;48.00;;;;;;5111297;28;20269;-71
2023/08/21 02:10:00;;;;;;;1.83;1.10;;;25.80;47.20;;;;;;5095082;28;20183;-71
2023/08/21 02:12:27;;;;;;;1.17;0.80;;;25.60;48.40;;;;;;5114828;28;20563;-71
2023/08/21 02:14:55;;;;;;;4.07;1.10;;;26.10;49.60;;;;;;5115562;28;20182;-72
2023/08/21 02:17:22;;;;;;;1.70;1.00;;;26.40;48.40;;;;;;5115548;28;20181;-72
2023/08/21 02:19:50;;;;;;;1.70;0.80;;;26.00;46.70;;;;;;5114665;28;20259;-69
2023/08/21 02:22:17;;;;;;;6.27;0.87;;;25.60;45.70;;;;;;5114657;28;20551;-72
2023/08/21 02:24:44;;;;;;;1.47;0.63;;;25.50;47.20;;;;;;5115080;28;20195;-71
2023/08/21 02:27:12;;;;;;;2.60;1.00;;;25.60;45.70;;;;;;5114425;28;20178;-72
2023/08/21 02:29:39;;;;;;;4.67;0.90;;;25.00;44.60;;;;;;5115254;28;20179;-71
2023/08/21 02:32:06;;;;;;;1.43;0.70;;;24.80;46.00;;;;;;5114983;28;20202;-71
2023/08/21 02:34:34;;;;;;;3.30;0.93;;;25.40;47.10;;;;;;5114714;28;20713;-72
2023/08/21 02:37:02;;;;;;;2.63;0.90;;;25.40;45.90;;;;;;5114253;28;20174;-71
2023/08/21 02:39:30;;;;;;;6.83;0.93;;;24.70;48.50;;;;;;5113996;28;20623;-70
2023/08/21 02:41:57;;;;;;;2.80;1.00;;;25.20;47.40;;;;;;5113840;28;20235;-69
2023/08/21 02:44:24;;;;;;;2.23;1.00;;;24.80;46.80;;;;;;5111420;28;20210;-71
2023/08/21 02:46:52;;;;;;;1.33;0.83;;;25.40;46.10;;;;;;5113987;28;20261;-71
2023/08/21 02:49:19;;;;;;;1.93;1.00;;;25.10;43.10;;;;;;5113735;28;20186;-70
2023/08/21 02:51:46;;;;;;;0.90;0.70;;;24.90;46.10;;;;;;5114131;28;20250;-70
2023/08/21 02:54:14;;;;;;;1.63;0.70;;;24.80;44.50;;;;;;5114403;28;20514;-69
2023/08/21 02:56:41;;;;;;;1.70;0.60;;;24.80;46.60;;;;;;5113446;28;20683;-69
2023/08/21 02:59:08;;;;;;;0.77;0.60;;;25.20;43.40;;;;;;5113299;28;20182;-69
2023/08/21 03:01:36;;;;;;;0.70;0.50;;;25.70;40.90;;;;;;5114518;28;20167;-72
2023/08/21 03:04:03;;;;;;;0.80;0.53;;;25.50;43.30;;;;;;5113431;28;20192;-71
2023/08/21 03:06:31;;;;;;;5.87;0.77;;;25.90;42.00;;;;;;5113843;28;20587;-70
2023/08/21 03:08:58;;;;;;;1.73;0.83;;;26.00;39.60;;;;;;5114426;28;20649;-69
2023/08/21 03:11:25;;;;;;;1.33;0.80;;;25.70;39.60;;;;;;5114032;28;20179;-70
2023/08/21 03:13:53;;;;;;;2.43;0.97;;;25.60;41.00;;;;;;5113750;28;20540;-71
2023/08/21 03:16:20;;;;;;;1.97;0.50;;;25.10;37.30;;;;;;5115551;28;20795;-70
2023/08/21 03:18:59;;;;;;;2.60;0.90;;;24.80;38.00;;;;;;5115336;28;20226;-69
2023/08/21 03:21:27;;;;;;;6.17;1.00;;;24.80;37.60;;;;;;5115257;28;20174;-70
2023/08/21 03:24:01;;;;;;;3.60;0.70;;;24.60;38.60;;;;;;5115712;28;20175;-71
2023/08/21 03:26:29;;;;;;;1.07;0.60;;;24.90;40.50;;;;;;5115271;28;20278;-70
2023/08/21 03:28:56;;;;;;;2.07;0.93;;;24.80;39.60;;;;;;5115874;28;20178;-69
2023/08/21 03:31:24;;;;;;;0.90;0.83;;;24.80;38.90;;;;;;5096967;28;20284;-69
2023/08/21 03:33:51;;;;;;;3.47;0.70;;;25.00;38.10;;;;;;5111161;28;20221;-69
2023/08/21 03:36:19;;;;;;;1.47;0.80;;;24.80;36.10;;;;;;5093288;28;20191;-71
2023/08/21 03:38:46;;;;;;;3.37;0.93;;;24.60;36.40;;;;;;5112454;28;20217;-70
2023/08/21 03:41:13;;;;;;;1.17;0.70;;;24.50;39.00;;;;;;5112780;28;20210;-72
2023/08/21 03:43:41;;;;;;;2.27;0.90;;;24.70;39.90;;;;;;5112790;28;20251;-71
2023/08/21 03:46:08;;;;;;;3.17;0.73;;;25.00;39.80;;;;;;5113485;28;20218;-70
2023/08/21 03:48:35;;;;;;;2.13;0.80;;;25.20;37.60;;;;;;5112329;28;20182;-71
2023/08/21 03:51:03;;;;;;;1.53;0.80;;;25.20;37.70;;;;;;5111774;28;20182;-70
2023/08/21 03:53:30;;;;;;;2.23;0.80;;;25.10;35.10;;;;;;5112853;28;20555;-70
2023/08/21 03:55:57;;;;;;;1.40;0.80;;;24.60;38.40;;;;;;5113151;28;20760;-69
2023/08/21 03:58:28;;;;;;;1.93;1.13;;;24.70;40.40;;;;;;5112804;28;20612;-70
2023/08/21 04:00:55;;;;;;;3.00;1.00;;;25.20;41.30;;;;;;5112757;28;21010;-70
2023/08/21 04:03:23;;;;;;;1.80;0.90;;;25.50;38.10;;;;;;5113092;28;20639;-70
2023/08/21 04:05:50;;;;;;;0.83;0.70;;;25.70;37.40;;;;;;5112492;28;20709;-71
2023/08/21 04:08:17;;;;;;;3.20;1.20;;;25.80;35.70;;;;;;5112897;28;20175;-71
2023/08/21 04:10:45;;;;;;;3.37;1.17;;;25.80;36.70;;;;;;5112389;28;20193;-69
2023/08/21 04:13:12;;;;;;;2.03;0.93;;;26.00;37.10;;;;;;5112437;28;20581;-71
2023/08/21 04:15:40;;;;;;;2.60;1.03;;;26.10;39.80;;;;;;5094639;28;20214;-70
2023/08/21 04:18:07;;;;;;;3.73;1.10;;;25.90;36.70;;;;;;5112459;28;20228;-72
2023/08/21 04:20:35;;;;;;;3.20;0.80;;;25.10;36.10;;;;;;5111937;28;20576;-70
2023/08/21 04:23:02;;;;;;;5.17;1.33;;;24.80;36.60;;;;;;5112537;28;20178;-69
2023/08/21 04:25:29;;;;;;;1.53;0.90;;;24.60;37.80;;;;;;5112492;28;20206;-69
2023/08/21 04:28:01;;;;;;;3.43;1.03;;;25.20;39.30;;;;;;5111531;28;20290;-69
2023/08/21 04:30:28;;;;;;;1.07;0.80;;;25.40;36.50;;;;;;5112433;28;20214;-71
2023/08/21 04:32:56;;;;;;;1.63;1.00;;;25.20;37.20;;;;;;5111578;28;20204;-71
2023/08/21 04:35:23;;;;;;;2.60;1.17;;;25.50;34.90;;;;;;5111929;28;20210;-72
2023/08/21 04:37:50;;;;;;;3.47;1.10;;;25.00;36.70;;;;;;5111873;28;20556;-70
2023/08/21 04:40:20;;;;;;;2.20;1.23;;;24.90;37.70;;;;;;5111994;28;20611;-69
2023/08/21 04:42:48;;;;;;;3.80;1.00;;;24.60;39.50;;;;;;5111805;28;20181;-72
2023/08/21 04:45:15;;;;;;;2.47;0.70;;;24.30;39.70;;;;;;5112210;28;20230;-72
2023/08/21 04:47:43;;;;;;;1.10;0.87;;;24.10;37.60;;;;;;5112100;28;20187;-72
2023/08/21 04:50:10;;;;;;;5.07;1.20;;;24.00;38.50;;;;;;5092991;28;20186;-71
2023/08/21 04:52:37;;;;;;;2.40;0.90;;;24.40;43.20;;;;;;5111668;28;20186;-72
2023/08/21 04:55:06;;;;;;;4.03;1.07;;;24.50;41.90;;;;;;5111694;28;20231;-70
2023/08/21 04:57:34;;;;;;;3.93;1.00;;;24.50;40.20;;;;;;5093472;28;20578;-69
2023/08/21 05:00:03;;;;;;;3.00;1.10;;;24.50;40.70;;;;;;5111701;28;20178;-72
2023/08/21 05:02:31;;;;;;;3.30;1.07;;;24.80;40.90;;;;;;5111873;28;20183;-72
2023/08/21 05:04:58;;;;;;;0.73;0.60;;;24.80;39.00;;;;;;5111214;28;20198;-71
2023/08/21 05:07:27;;;;;;;1.40;0.50;;;24.90;41.60;;;;;;5110894;28;20206;-71
2023/08/21 05:09:54;;;;;;;0.60;0.60;;;24.90;41.80;;;;;;5111117;28;20177;-70
2023/08/21 05:12:22;;;;;;;3.43;0.80;;;24.70;42.10;;;;;;5107894;28;20232;-71
2023/08/21 05:14:49;;;;;;;2.07;0.67;;;24.50;41.00;;;;;;5111769;28;20187;-71
2023/08/21 05:17:16;;;;;;;1.00;0.57;;;24.20;42.40;;;;;;5111718;28;20174;-70
2023/08/21 05:19:44;;;;;;;2.90;0.67;;;24.10;41.60;;;;;;5110479;28;20211;-70
2023/08/21 05:22:11;;;;;;;2.40;0.80;;;24.20;46.00;;;;;;5110629;28;20217;-71
2023/08/21 05:24:39;;;;;;;1.53;0.70;;;24.10;45.10;;;;;;5111438;28;20537;-71
2023/08/21 05:27:06;;;;;;;0.60;0.60;;;23.90;43.00;;;;;;5110884;28;20185;-71
2023/08/21 05:29:34;;;;;;;1.00;0.67;;;23.60;42.70;;;;;;5111558;28;20174;-71
2023/08/21 05:32:01;;;;;;;1.17;0.70;;;23.40;44.00;;;;;;5111094;28;20182;-72
2023/08/21 05:34:29;;;;;;;6.63;1.10;;;23.40;46.70;;;;;;5111757;28;20185;-70
2023/08/21 05:36:56;;;;;;;1.60;0.80;;;23.30;45.40;;;;;;5111205;28;20179;-71
2023/08/21 05:39:24;;;;;;;8.63;0.87;;;23.50;45.30;;;;;;5111453;28;20708;-72
2023/08/21 05:41:52;;;;;;;7.23;0.77;;;23.50;45.80;;;;;;5110970;28;20182;-71
2023/08/21 05:44:19;;;;;;;1.47;0.70;;;23.50;44.30;;;;;;5113887;28;20177;-70
2023/08/21 05:46:47;;;;;;;1.90;0.80;;;23.50;44.50;;;;;;5115939;28;20206;-69
2023/08/21 05:49:14;;;;;;;1.67;0.70;;;23.60;46.40;;;;;;5117350;28;20249;-69
2023/08/21 05:51:41;;;;;;;1.27;0.60;;;23.70;46.80;;;;;;5116734;28;20274;-70
2023/08/21 05:54:09;;;;;;;1.67;0.70;;;23.50;45.40;;;;;;5094282;28;20207;-72
2023/08/21 05:56:36;;;;;;;2.47;0.80;;;23.20;45.40;;;;;;5115569;28;20270;-70
2023/08/21 05:59:03;;;;;;;1.37;0.60;;;23.20;45.80;;;;;;5115837;28;20194;-71
2023/08/21 06:01:31;;;;;;;1.23;0.70;;;23.10;45.80;;;;;;5115009;28;20235;-73
2023/08/21 06:03:59;;;;;;;5.13;0.70;;;22.80;48.00;;;;;;5115864;28;20178;-71
2023/08/21 06:06:26;;;;;;;1.77;0.70;;;22.60;50.10;;;;;;5115784;28;20620;-71
2023/08/21 06:08:53;;;;;;;2.13;0.93;;;22.50;50.10;;;;;;5096910;28;20277;-71
2023/08/21 06:11:21;;;;;;;0.83;0.70;;;22.30;49.30;;;;;;5115429;28;20262;-71
2023/08/21 06:13:49;;;;;;;0.87;0.70;;;22.30;50.80;;;;;;5114840;28;20214;-72
2023/08/21 06:16:16;;;;;;;2.20;0.80;;;22.20;52.60;;;;;;5114756;28;20200;-71
2023/08/21 06:18:45;;;;;;;1.10;0.70;;;22.10;53.90;;;;;;5115203;28;20218;-69
2023/08/21 06:21:12;;;;;;;1.00;0.70;;;22.00;54.30;;;;;;5115157;28;20586;-70
2023/08/21 06:23:40;;;;;;;1.00;0.60;;;21.70;54.50;;;;;;5114655;28;20270;-71
2023/08/21 06:26:08;;;;;;;2.53;0.60;;;21.70;56.90;;;;;;5114834;28;20232;-72
2023/08/21 06:28:35;;;;;;;1.20;0.70;;;21.70;57.10;;;;;;5115053;28;20651;-72
2023/08/21 06:31:07;;;;;;;0.90;0.70;;;21.60;55.70;;;;;;5114848;28;20182;-71
2023/08/21 06:33:35;;;;;;;0.63;0.60;;;21.40;57.20;;;;;;5114927;28;20227;-72
2023/08/21 06:36:03;;;;;;;3.00;0.70;;;21.40;59.00;;;;;;5114863;28;20202;-72
2023/08/21 06:38:30;;;;;;;1.17;0.70;;;21.30;57.00;;;;;;5114542;28;20171;-73
2023/08/21 06:40:58;;;;;;;1.23;0.73;;;21.20;59.30;;;;;;5115045;28;20269;-72
2023/08/21 06:43:26;;;;;;;3.50;0.70;;;21.20;60.00;;;;;;5114651;28;20209;-71
2023/08/21 06:45:54;;;;;;;1.50;1.00;;;21.10;66.10;;;;;;5114474;28;20213;-70
2023/08/21 06:48:22;;;;;;;1.23;0.80;;;21.20;64.00;;;;;;5114836;28;20175;-72
2023/08/21 06:50:50;;;;;;;3.80;1.03;;;21.10;65.00;;;;;;5114115;28;20739;-72
2023/08/21 06:53:18;;;;;;;4.50;0.90;;;21.10;68.90;;;;;;5095592;28;20186;-71
2023/08/21 06:55:49;;;;;;;1.50;0.77;;;21.00;69.20;;;;;;5113338;28;20546;-69
2023/08/21 06:58:17;;;;;;;2.97;1.33;;;21.00;70.80;;;;;;5114780;28;20210;-71
2023/08/21 07:00:44;;;;;;;2.60;1.00;;;21.00;69.70;;;;;;5113458;28;20220;-72
2023/08/21 07:03:12;;;;;;;2.47;1.23;;;20.80;74.60;;;;;;5113422;28;20186;-71
2023/08/21 07:05:40;;;;;;;4.40;0.90;;;20.70;74.40;;;;;;5113849;28;20229;-69
2023/08/21 07:08:08;;;;;;;1.53;0.90;;;20.70;75.50;;;;;;5113212;28;20554;-71
2023/08/21 07:10:39;;;;;;;1.97;1.17;;;20.70;75.30;;;;;;5113330;28;20206;-71
2023/08/21 07:13:06;;;;;;;2.40;0.97;;;20.60;79.70;;;;;;5113097;28;20658;-69
2023/08/21 07:15:34;;;;;;;2.83;1.33;;;20.40;81.80;;;;;;5113673;28;20181;-71
2023/08/21 07:18:02;;;;;;;1.80;0.90;;;20.20;83.60;;;;;;5095358;28;20664;-72
2023/08/21 07:20:30;;;;;;;4.93;0.90;;;20.00;86.50;;;;;;5113348;28;20226;-72
2023/08/21 07:22:58;;;;;;;1.80;1.00;;;19.90;90.40;;;;;;5112788;28;20175;-72
2023/08/21 07:25:26;;;;;;;5.70;1.10;;;19.70;93.30;;;;;;5095119;28;20275;-71
2023/08/21 07:27:54;;;;;;;1.07;0.80;;;19.50;95.40;;;;;;5113687;28;20174;-71
2023/08/21 07:30:24;;;;;;;2.20;1.10;;;19.30;99.00;;;;;;5113013;28;20200;-71
2023/08/21 07:32:54;;;;;;;4.20;1.10;;;19.10;99.90;;;;;;5113374;28;20186;-72
2023/08/21 07:35:22;;;;;;;1.77;0.80;;;18.80;99.90;;;;;;5113418;28;20948;-71
2023/08/21 07:37:49;;;;;;;1.13;0.87;;;18.70;99.90;;;;;;5112869;28;20170;-71
2023/08/21 07:40:17;;;;;;;4.40;1.10;;;18.50;99.90;;;;;;5112638;28;20532;-70
2023/08/21 07:42:45;;;;;;;2.53;1.00;;;18.40;99.90;;;;;;5113178;28;20198;-72
2023/08/21 07:45:13;;;;;;;5.13;1.40;;;18.20;99.90;;;;;;5112486;28;20214;-72
2023/08/21 07:47:41;;;;;;;2.33;1.37;;;18.10;99.90;;;;;;5112865;28;20181;-71
2023/08/21 07:50:09;;;;;;;3.87;1.53;;;18.00;99.90;;;;;;5113262;28;20173;-71
2023/08/21 07:52:37;;;;;;;1.73;1.07;;;18.10;99.90;;;;;;5112433;28;20192;-71
2023/08/21 07:55:05;;;;;;;3.13;1.73;;;18.10;99.90;;;;;;5112946;28;20265;-73
2023/08/21 07:57:33;;;;;;;4.37;1.27;;;18.00;99.90;;;;;;5113256;28;20170;-72
2023/08/21 08:00:01;;;;;;;1.40;1.30;;;17.90;99.90;;;;;;5112403;28;20334;-72
2023/08/21 08:02:28;;;;;;;4.93;1.43;;;17.90;99.90;;;;;;5112635;28;20179;-72
2023/08/21 08:04:56;;;;;;;5.50;1.70;;;17.80;99.90;;;;;;5112910;28;20183;-71
2023/08/21 08:07:24;;;;;;;3.03;1.70;;;17.70;99.90;;;;;;5111996;28;20194;-73
2023/08/21 08:09:52;;;;;;;3.47;1.57;;;17.60;99.90;;;;;;5112957;28;20183;-72
2023/08/21 08:12:20;;;;;;;3.87;2.03;;;17.50;99.90;;;;;;5112583;28;20181;-71
2023/08/21 08:14:47;;;;;;;5.10;1.60;;;17.40;99.90;;;;;;5111882;28;20187;-71
2023/08/21 08:17:15;;;;;;;3.50;1.90;;;17.30;99.90;;;;;;5111727;28;20538;-72
2023/08/21 08:19:43;;;;;;;8.70;2.03;;;17.20;99.90;;;;;;5112592;28;20225;-71
2023/08/21 08:22:11;;;;;;;9.63;2.07;;;17.20;99.90;;;;;;5112144;28;20190;-72
2023/08/21 08:24:38;;;;;;;4.27;1.90;;;17.20;99.90;;;;;;5111398;28;20175;-72
2023/08/21 08:27:06;;;;;;;4.47;2.00;;;17.10;99.90;;;;;;5112157;28;20269;-71
2023/08/21 08:29:34;;;;;;;5.60;1.83;;;17.00;99.90;;;;;;5111776;28;20262;-72
2023/08/21 08:32:02;;;;;;;5.43;2.07;;;17.10;99.90;;;;;;5112450;28;20203;-72
2023/08/21 08:34:30;;;;;;;8.90;2.93;;;17.00;99.90;;;;;;5112189;28;20671;-72
2023/08/21 08:36:58;;;;;;;5.83;2.23;;;17.00;99.90;;;;;;5111903;28;20182;-73
2023/08/21 08:39:25;;;;;;;6.63;1.90;;;16.90;99.90;;;;;;5112341;28;20184;-74
2023/08/21 08:42:03;;;;;;;6.10;2.90;;;17.00;99.90;;;;;;5111801;28;20175;-70
2023/08/21 08:44:34;;;;;;;4.00;2.73;;;17.00;99.90;;;;;;5111926;28;20217;-70
2023/08/21 08:47:02;;;;;;;4.47;2.50;;;16.90;99.90;;;;;;5111741;28;20214;-72
2023/08/21 08:49:31;;;;;;;5.20;2.00;;;16.70;99.90;;;;;;5112019;28;20224;-72
2023/08/21 08:52:00;;;;;;;4.03;1.90;;;16.60;99.90;;;;;;5092837;28;20179;-71
2023/08/21 08:54:29;;;;;;;3.53;1.80;;;16.50;99.90;;;;;;5111324;28;20254;-73
2023/08/21 08:56:58;;;;;;;4.20;2.10;;;16.60;99.90;;;;;;5111803;28;20185;-71
2023/08/21 08:59:27;;;;;;;5.60;1.90;;;16.50;99.90;;;;;;5092778;28;20181;-72
2023/08/21 09:01:55;;;;;;;3.63;1.40;;;16.50;99.90;;;;;;5111248;28;20217;-72
2023/08/21 09:04:23;;;;;;;5.87;1.90;;;16.40;99.90;;;;;;5111642;28;20644;-72
2023/08/21 09:06:50;;;;;;;4.17;1.77;;;16.30;99.90;;;;;;5110281;28;20573;-72
2023/08/21 09:09:18;;;;;;;5.50;1.73;;;16.10;99.90;;;;;;5111041;28;20187;-72
2023/08/21 09:11:47;;;;;;;5.43;2.23;;;16.10;99.90;;;;;;5103163;28;20210;-72
2023/08/21 09:14:15;;;;;;;4.13;1.97;;;16.00;99.90;;;;;;5110691;28;20178;-73
2023/08/21 09:17:04;;;;;;;5.17;1.80;;;15.90;99.90;;;;;;5111660;28;20269;-72
2023/08/21 09:19:32;;;;;;;5.30;1.77;;;15.80;99.90;;;;;;5110785;28;20580;-72
2023/08/21 09:22:10;;;;;;;5.30;1.90;;;15.70;99.90;;;;;;5110977;28;20212;-71
2023/08/21 09:24:39;;;;;;;3.80;2.10;;;15.70;99.90;;;;;;5094106;28;20531;-72
2023/08/21 09:27:17;;;;;;;3.20;1.63;;;15.60;99.90;;;;;;5113008;28;20251;-71
2023/08/21 09:29:47;;;;;;;5.70;2.33;;;15.50;99.90;;;;;;5113010;28;20643;-72
2023/08/21 09:32:15;;;;;;;3.57;1.70;;;15.40;99.90;;;;;;5094327;28;20182;-71
2023/08/21 09:34:44;;;;;;;5.73;2.10;;;15.40;99.90;;;;;;5113105;28;20172;-73
2023/08/21 09:37:12;;;;;;;7.40;1.93;;;15.30;99.90;;;;;;5094595;28;20179;-72
2023/08/21 09:39:42;;;;;;;4.67;1.87;;;15.30;99.90;;;;;;5113195;28;20177;-71
2023/08/21 09:42:10;;;;;;;5.37;1.93;;;15.30;99.90;;;;;;5094697;28;20186;-71
2023/08/21 09:44:43;;;;;;;3.93;2.10;;;15.20;99.90;;;;;;5113069;28;20194;-72
2023/08/21 09:47:11;;;;;;;5.43;2.60;;;15.20;99.90;;;;;;5122670;28;20191;-72
2023/08/21 09:49:40;;;;;;;5.83;2.37;;;15.10;99.90;;;;;;5092735;28;20182;-70
2023/08/21 09:52:13;;;;;;;2.83;1.90;;;15.00;99.90;;;;;;5107085;28;20186;-71
2023/08/21 09:54:42;;;;;;;3.77;1.63;;;15.00;99.90;;;;;;5112917;28;20179;-71
2023/08/21 09:57:12;;;;;;;3.93;1.80;;;15.00;99.90;;;;;;5113061;28;20171;-72
2023/08/21 09:59:41;;;;;;;2.17;1.80;;;14.90;99.90;;;;;;5112662;28;20178;-69
2023/08/21 10:02:11;;;;;;;4.57;1.97;;;14.90;99.90;;;;;;5112659;28;20183;-72
2023/08/21 10:04:42;;;;;;;4.23;2.23;;;14.90;99.90;;;;;;5112773;28;20719;-70
2023/08/21 10:07:11;;;;;;;5.07;2.70;;;14.80;99.90;;;;;;5112193;28;20341;-70
2023/08/21 10:09:41;;;;;;;2.70;1.83;;;14.70;99.90;;;;;;5112744;28;20181;-70
2023/08/21 10:12:14;;;;;;;7.47;2.30;;;14.60;99.90;;;;;;5112467;28;20189;-71
2023/08/21 10:14:43;;;;;;;4.90;2.53;;;14.60;99.90;;;;;;5112896;28;20178;-71
2023/08/21 10:17:11;;;;;;;4.10;2.20;;;14.60;99.90;;;;;;5111742;28;20190;-72
2023/08/21 10:19:39;;;;;;;4.07;2.33;;;14.60;99.90;;;;;;5112683;28;20227;-73
2023/08/21 10:22:07;;;;;;;4.60;2.30;;;14.70;99.90;;;;;;5112494;28;20684;-71
2023/08/21 10:24:38;;;;;;;4.50;2.40;;;14.70;99.90;;;;;;5112385;28;20196;-71
2023/08/21 10:27:08;;;;;;;4.23;1.90;;;14.70;99.90;;;;;;5094573;28;20710;-72
2023/08/21 10:29:36;;;;;;;3.53;2.20;;;14.70;99.90;;;;;;5112341;28;20186;-72
2023/08/21 10:32:05;;;;;;;6.63;2.30;;;14.70;99.90;;;;;;5115971;28;20210;-71
2023/08/21 10:34:37;;;;;;;5.27;2.33;;;14.60;99.90;;;;;;5098156;28;20185;-72
2023/08/21 10:37:09;;;;;;;6.07;2.50;;;14.60;99.90;;;;;;5116379;28;20192;-72
2023/08/21 10:39:39;;;;;;;5.80;2.40;;;14.60;99.90;;;;;;5116004;28;20184;-73
2023/08/21 10:42:15;;;;;;;4.97;2.20;;;14.60;99.90;;;;;;5116139;28;20183;-70
2023/08/21 10:44:48;;;;;;;4.90;2.63;;;14.60;99.90;;;;;;5097762;28;20188;-72
2023/08/21 10:47:16;;;;;;;5.63;2.27;;;14.60;99.90;;;;;;5116202;28;20190;-71
2023/08/21 10:49:50;;;;;;;3.77;2.60;;;14.60;99.90;;;;;;5116268;28;20174;-72
2023/08/21 10:52:28;;;;;;;5.07;2.37;;;14.50;99.90;;;;;;5115522;28;20176;-70
2023/08/21 10:55:01;;;;;;;4.60;2.23;;;14.50;99.90;;;;;;5115398;28;20198;-71
2023/08/21 10:57:33;;;;;;;4.10;2.20;;;14.50;99.90;;;;;;5112603;28;20211;-70
2023/08/21 11:00:08;;;;;;;7.90;2.70;;;14.50;99.90;;;;;;5114886;28;20246;-72
2023/08/21 11:02:37;;;;;;;6.10;2.97;;;14.50;99.90;;;;;;5115114;28;20719;-71
2023/08/21 11:05:05;;;;;;;6.50;2.90;;;14.40;99.90;;;;;;5112809;28;20205;-70
2023/08/21 11:07:53;;;;;;;6.80;2.67;;;14.30;99.90;;;;;;5115311;28;20573;-72
2023/08/21 11:10:25;;;;;;;6.87;3.60;;;14.30;99.90;;;;;;5095482;28;20185;-71
2023/08/21 11:12:59;;;;;;;9.07;4.30;;;14.20;99.90;;;;;;5095353;28;20186;-71
2023/08/21 11:15:30;;;;;;;8.83;4.07;;;14.10;99.90;;;;;;5095212;28;20185;-72
2023/08/21 11:17:59;;;;;;;5.80;3.50;;;14.00;99.90;;;;;;5095340;28;20569;-71
2023/08/21 11:20:31;;;;;;;6.70;3.90;;;13.90;99.90;;;;;;5094886;28;20236;-71
2023/08/21 11:23:07;;;;;;;6.63;4.00;;;13.80;99.90;;;;;;5094923;28;20184;-70
2023/08/21 11:25:40;;;;;;;9.87;3.77;;;13.80;99.90;;;;;;5077857;28;20205;-72
2023/08/21 11:28:08;;;;;;;7.67;4.23;;;13.70;99.90;;;;;;5094717;28;20178;-70
2023/08/21 11:30:36;;;;;;;6.10;3.80;;;13.60;99.90;;;;;;5095147;28;20170;-70
2023/08/21 11:33:11;;;;;;;6.47;3.60;;;13.50;99.90;;;;;;5095082;28;20257;-70
2023/08/21 11:35:40;;;;;;;5.57;3.17;;;13.40;99.90;;;;;;5121641;27;20183;-71
2023/08/21 11:38:19;;;;;;;9.20;3.70;;;13.40;99.90;;;;;;5105925;27;20192;-69
2023/08/21 11:41:15;;;;;;;5.77;3.30;;;13.30;99.90;;;;;;5106903;28;20180;-71
2023/08/21 11:43:43;;;;;;;8.73;3.47;;;13.20;99.90;;;;;;5111986;28;20184;-69
2023/08/21 11:46:13;;;;;;;4.57;3.17;;;13.20;99.90;;;;;;5120703;27;20212;-71
2023/08/21 11:48:42;;;;;;;4.70;3.13;;;13.10;99.90;;;;;;5115696;27;20185;-72
2023/08/21 11:51:10;;;;;;;5.37;3.50;;;13.00;99.90;;;;;;5115392;27;20653;-71
2023/08/21 11:53:42;;;;;;;11.13;3.40;;;12.90;99.90;;;;;;5112946;28;20172;-71
2023/08/21 11:56:15;;;;;;;11.23;3.83;;;12.90;99.90;;;;;;5113218;28;20189;-70
2023/08/21 11:58:46;;;;;;;6.27;3.60;;;12.80;99.90;;;;;;5094375;28;20224;-69
2023/08/21 12:01:23;;;;;;;5.37;3.40;;;12.80;99.90;;;;;;5118021;27;20180;-69
2023/08/21 12:03:56;;;;;;;7.30;3.70;;;12.80;99.90;;;;;;5115170;27;20182;-70
2023/08/21 12:06:32;;;;;;;15.10;4.10;;;12.70;99.90;;;;;;5097769;28;20243;-69
2023/08/21 12:09:00;;;;;;;7.53;3.73;;;12.80;99.90;;;;;;5112176;28;20196;-69
2023/08/21 12:11:27;;;;;;;7.83;4.00;;;12.70;99.90;;;;;;5112204;28;20271;-70
2023/08/21 12:13:58;;;;;;;6.53;3.97;;;12.70;99.90;;;;;;5112795;28;20174;-71
2023/08/21 12:16:26;;;;;;;7.50;3.60;;;12.70;99.90;;;;;;5112524;28;20263;-69
2023/08/21 12:18:57;;;;;;;9.77;3.37;;;12.70;99.90;;;;;;5112645;28;20256;-69
2023/08/21 12:21:27;;;;;;;5.17;3.70;;;12.70;99.90;;;;;;5112579;28;20464;-68
2023/08/21 12:23:55;;;;;;;7.63;3.47;;;12.60;99.90;;;;;;5112168;28;20215;-70
2023/08/21 12:26:23;;;;;;;9.00;4.03;;;12.60;99.90;;;;;;5112603;28;20237;-69
2023/08/21 12:28:52;;;;;;;7.73;3.87;;;12.50;99.90;;;;;;5112258;28;20185;-69
2023/08/21 12:31:19;;;;;;;6.07;3.60;;;12.50;99.90;;;;;;5111806;28;20196;-70
2023/08/21 12:33:47;;;;;;;9.17;3.83;;;12.50;99.90;;;;;;5112462;28;20230;-69
2023/08/21 12:36:18;;;;;;;7.37;3.93;;;12.50;99.90;;;;;;5112505;28;20168;-70
2023/08/21 12:38:46;;;;;;;9.77;4.10;;;12.40;99.90;;;;;;5111781;28;20173;-70
2023/08/21 12:41:14;;;;;;;11.40;4.07;;;12.40;99.90;;;;;;5111561;28;20203;-70
2023/08/21 12:43:41;;;;;;;5.23;3.57;;;12.30;99.90;;;;;;5093926;28;20203;-70
2023/08/21 12:46:09;;;;;;;5.30;3.60;;;12.30;99.90;;;;;;5111574;28;20307;-69
2023/08/21 12:48:37;;;;;;;7.93;3.90;;;12.20;99.90;;;;;;5111786;28;20202;-69
2023/08/21 12:51:05;;;;;;;8.17;4.10;;;12.20;99.90;;;;;;5111736;28;20182;-68
2023/08/21 12:53:33;;;;;;;8.63;4.87;;;12.20;99.90;;;;;;5110971;28;20177;-69